METAR Data
IDs: Format: Raw Decoded Include TAF

Data at: 0119 UTC 06 Dec 2019

KHXD 060050Z 00000KT 10SM CLR 08/07 A3019
KHXD 052350Z 00000KT 10SM CLR 09/07 A3017
KHXD 052250Z 21004KT 10SM CLR 11/08 A3016
KHXD 052150Z 18005KT 10SM CLR 14/07 A3014
KHXD 052050Z 00000KT 10SM CLR 16/04 A3013
KHXD 051950Z 00000KT 10SM CLR 19/01 A3010
KHXD 051850Z 35005KT 10SM CLR 18/00 A3010
KHXD 051750Z 34004KT 10SM CLR 17/01 A3011
KHXD 051650Z 34008KT 10SM CLR 16/01 A3012
KHXD 051550Z 34008KT 10SM CLR 15/02 A3012
KHXD 051450Z 34008KT 10SM CLR 12/02 A3011
KHXD 051350Z 34008KT 10SM CLR 11/01 A3008
KHXD 051250Z 34008KT 10SM CLR 10/01 A3005
KHXD 051150Z 34008KT 10SM CLR 10/01 A3002
KHXD 051035Z AUTO VRB06G15KT 10SM CLR 10/01 A2999 RMK AO2
KHXD 051015Z AUTO 29010KT 260V340 10SM CLR 10/01 A2998 RMK AO2
KHXD 050955Z AUTO 29007G14KT 260V340 10SM CLR 10/01 A2997 RMK AO2
KHXD 050935Z AUTO VRB05G12KT 10SM CLR 10/02 A2997 RMK AO2
KHXD 050915Z AUTO VRB05KT 10SM CLR 10/02 A2997 RMK AO2
KHXD 050855Z AUTO 26006G11KT 10SM CLR 10/01 A2997 RMK AO2
KHXD 050835Z AUTO 26008KT 10SM CLR 11/01 A2996 RMK AO2
KHXD 050815Z AUTO 28008KT 10SM CLR 11/01 A2995 RMK AO2
KHXD 050755Z AUTO VRB06G11KT 10SM CLR 11/02 A2996 RMK AO2
KHXD 050735Z AUTO VRB06G11KT 10SM CLR 10/02 A2996 RMK AO2
KHXD 050715Z AUTO VRB06KT 10SM CLR 10/02 A2996 RMK AO2
KHXD 050655Z AUTO VRB06G12KT 10SM CLR 11/02 A2995 RMK AO2
KHXD 050635Z AUTO VRB06KT 10SM CLR 10/02 A2995 RMK AO2
KHXD 050615Z AUTO VRB06G12KT 10SM CLR 11/02 A2995 RMK AO2
KHXD 050555Z AUTO 25005KT 10SM CLR 10/02 A2994 RMK AO2
KHXD 050535Z AUTO 26005G12KT 10SM CLR 11/02 A2994 RMK AO2
KHXD 050515Z AUTO VRB06G12KT 10SM CLR 11/02 A2995 RMK AO2
KHXD 050455Z AUTO 25007KT 10SM CLR 11/03 A2995 RMK AO2
KHXD 050435Z AUTO VRB06G11KT 10SM CLR 11/03 A2994 RMK AO2
KHXD 050415Z AUTO VRB05G10KT 10SM CLR 11/03 A2994 RMK AO2
KHXD 050355Z AUTO 25007KT 10SM CLR 11/03 A2994 RMK AO2
KHXD 050335Z AUTO 24006KT 10SM CLR 11/03 A2994 RMK AO2
KHXD 050315Z AUTO 24005KT 10SM CLR 11/03 A2994 RMK AO2
KHXD 050255Z AUTO 23006KT 10SM CLR 11/03 A2993 RMK AO2
KHXD 050235Z AUTO 23006KT 10SM CLR 12/03 A2993 RMK AO2
KHXD 050215Z AUTO VRB06G11KT 10SM CLR 12/03 A2993 RMK AO2
KHXD 050155Z AUTO 24007KT 10SM CLR 12/03 A2992 RMK AO2
KHXD 050150Z 24005KT 10SM CLR 12/03 A2992
KHXD 050050Z 24004KT 10SM CLR 12/03 A2991
KHXD 042350Z 24009KT 10SM CLR 13/02 A2989
KHXD 042250Z 24009KT 10SM CLR 14/01 A2986
KHXD 042150Z 27009KT 10SM CLR 16/01 A2984
KHXD 042050Z 28008G18KT 10SM CLR 17/00 A2982
KHXD 041950Z 25010G16KT 10SM CLR 17/00 A2981
KHXD 041850Z 25006G12KT 10SM CLR 16/00 A2982
KHXD 041750Z 29006G12KT 10SM CLR 15/00 A2984
KHXD 041650Z 25008G15KT 10SM CLR 13/01 A2988
KHXD 041550Z 30008G15KT 10SM CLR 11/00 A2990
KHXD 041450Z 24010KT 10SM CLR 09/00 A2991
KHXD 041350Z 24010KT 10SM CLR 07/00 A2990